Alpha, Ohio
Current Conditions -  °F | °C
As of 2:58 AM on Friday 28 Nov 2014 (Local Time) from KFFO Reporting Station
Overcast Overcast  
Wind Chill: -8°   Ceiling: 4100
Heat Index: -4°   Visibility: 10mi
Dew Point: -8°   Wind: 6mph
Humidity: 77%   Direction: 260°W
Pressure: 30.37"   Gusts: NA
Location:  39.71°N, 84.02°W
Report Text: KFFO 280758Z 26005KT 10SM OVC041 M04/M08 A3037 RMK AO2A SLP298 T10451080
Loading
Personal Weather Stations






























Interactive Weather Map New forecast layout! Learn more

10-Day Weather Forecast

Advertisements
Track Severe Weather on mobile